createdAt,value
2023-01-12T00:00:06.047Z,98997.59
2023-01-12T00:02:40.469Z,98981.25
2023-01-12T00:05:09.319Z,98985.03
2023-01-12T00:07:37.249Z,98986.72
2023-01-12T00:10:06.453Z,98988.03
2023-01-12T00:12:34.300Z,98987.16
2023-01-12T00:15:02.165Z,98982.53
2023-01-12T00:17:30.043Z,98985.31
2023-01-12T00:19:57.881Z,98994.81
2023-01-12T00:22:25.745Z,98989.38
2023-01-12T00:24:55.082Z,98998.56
2023-01-12T00:27:22.979Z,98999.09
2023-01-12T00:29:50.874Z,98995.28
2023-01-12T00:32:21.025Z,98996.81
2023-01-12T00:34:48.997Z,99003.09
2023-01-12T00:37:16.922Z,99000.00
2023-01-12T00:39:53.162Z,98995.13
2023-01-12T00:42:44.387Z,99001.38
2023-01-12T00:45:24.586Z,98992.91
2023-01-12T00:47:53.902Z,99002.41
2023-01-12T00:50:22.271Z,99003.44
2023-01-12T00:52:50.242Z,99002.84
2023-01-12T00:55:18.172Z,99005.78
2023-01-12T00:57:46.060Z,99005.72
2023-01-12T01:00:14.554Z,99011.25
2023-01-12T01:02:43.442Z,99012.81
2023-01-12T01:05:11.279Z,99022.06
2023-01-12T01:07:39.454Z,99021.03
2023-01-12T01:10:07.749Z,99018.00
2023-01-12T01:12:35.668Z,99027.16
2023-01-12T01:15:03.660Z,99030.13
2023-01-12T01:17:31.604Z,99008.44
2023-01-12T01:19:59.409Z,99018.97
2023-01-12T01:22:27.694Z,99029.63
2023-01-12T01:24:55.526Z,99026.72
2023-01-12T01:27:24.428Z,99034.69
2023-01-12T01:29:52.234Z,99045.34
2023-01-12T01:32:20.176Z,99054.41
2023-01-12T01:34:48.239Z,99057.44
2023-01-12T01:37:16.827Z,99061.19
2023-01-12T01:42:40.433Z,99063.69
2023-01-12T01:45:14.217Z,99059.84
2023-01-12T01:47:49.463Z,99060.44
2023-01-12T01:50:26.447Z,99062.06
2023-01-12T01:53:04.728Z,99049.09
2023-01-12T01:55:39.361Z,99060.28
2023-01-12T01:58:12.598Z,99064.66
2023-01-12T02:00:43.166Z,99059.19
2023-01-12T02:03:14.472Z,99047.78
2023-01-12T02:05:46.320Z,99061.63
2023-01-12T02:08:42.447Z,99071.41
2023-01-12T02:11:31.428Z,99080.19
2023-01-12T02:14:19.560Z,99080.19
2023-01-12T02:16:59.009Z,99072.16
2023-01-12T02:19:52.435Z,99094.09
2023-01-12T02:22:26.553Z,99083.19
2023-01-12T02:28:28.427Z,99093.06
2023-01-12T02:31:00.024Z,99088.50
2023-01-12T02:33:37.284Z,99089.59
2023-01-12T02:36:33.724Z,99098.06
2023-01-12T02:39:37.207Z,99097.81
2023-01-12T02:42:43.381Z,99106.03
2023-01-12T02:57:13.612Z,99104.53
2023-01-12T02:59:45.753Z,99101.56
2023-01-12T03:02:20.578Z,99111.16
2023-01-12T03:04:49.219Z,99112.19
2023-01-12T03:07:34.644Z,99120.19
2023-01-12T03:10:32.807Z,99109.56
2023-01-12T03:16:01.056Z,99108.13
2023-01-12T03:18:32.786Z,99106.28
2023-01-12T03:21:18.860Z,99103.81
2023-01-12T03:24:16.303Z,99110.28
2023-01-12T03:26:51.497Z,99106.69
2023-01-12T03:29:30.169Z,99113.19
2023-01-12T03:32:03.442Z,99106.94
2023-01-12T03:34:34.891Z,99111.94
2023-01-12T03:37:06.444Z,99111.03
2023-01-12T03:40:00.592Z,99115.66
2023-01-12T03:42:51.469Z,99119.84
2023-01-12T03:45:37.792Z,99119.97
2023-01-12T03:48:43.452Z,99120.56
2023-01-12T03:51:22.744Z,99116.16
2023-01-12T03:53:53.616Z,99115.44
2023-01-12T03:56:26.744Z,99119.38
2023-01-12T04:01:50.681Z,99119.25
2023-01-12T04:04:20.200Z,99108.19
2023-01-12T04:06:49.140Z,99120.38
2023-01-12T04:09:18.505Z,99123.19
2023-01-12T04:12:05.123Z,99120.53
2023-01-12T04:14:33.486Z,99112.16
2023-01-12T04:17:01.350Z,99106.63
2023-01-12T04:19:29.170Z,99106.06
2023-01-12T04:25:23.462Z,99096.91
2023-01-12T04:28:17.848Z,99113.84
2023-01-12T04:33:38.590Z,99108.44
2023-01-12T04:36:13.545Z,99097.09
2023-01-12T04:38:44.496Z,99106.00
2023-01-12T04:41:12.321Z,99107.16
2023-01-12T04:43:40.181Z,99115.44
2023-01-12T04:46:09.758Z,99112.41
2023-01-12T04:49:03.034Z,99105.19
2023-01-12T04:51:30.947Z,99107.47
2023-01-12T04:53:58.897Z,99107.47
2023-01-12T04:56:27.747Z,99108.38
2023-01-12T04:58:59.609Z,99115.94
2023-01-12T05:01:30.707Z,99127.94
2023-01-12T05:04:00.712Z,99120.31
2023-01-12T05:06:30.596Z,99119.47
2023-01-12T05:09:19.989Z,99126.53
2023-01-12T05:11:48.495Z,99114.97
2023-01-12T05:14:17.282Z,99105.50
2023-01-12T05:16:45.148Z,99098.03
2023-01-12T05:19:13.461Z,99092.31
2023-01-12T05:22:06.879Z,99103.28
2023-01-12T05:24:38.723Z,99115.53
2023-01-12T05:27:06.610Z,99120.09
2023-01-12T05:29:37.121Z,99119.31
2023-01-12T05:32:04.982Z,99130.63
2023-01-12T05:34:32.785Z,99130.63
2023-01-12T05:37:01.487Z,99138.59
2023-01-12T05:39:32.789Z,99139.63
2023-01-12T05:42:19.737Z,99151.75
2023-01-12T05:44:47.592Z,99153.84
2023-01-12T05:47:16.609Z,99153.38
2023-01-12T05:49:44.538Z,99146.53
2023-01-12T05:52:12.349Z,99147.84
2023-01-12T05:54:42.573Z,99144.88
2023-01-12T05:57:10.421Z,99140.56
2023-01-12T05:59:39.140Z,99142.16
2023-01-12T06:02:07.130Z,99148.19
2023-01-12T06:04:35.059Z,99135.13
2023-01-12T06:10:01.493Z,99151.38
2023-01-12T06:12:48.679Z,99158.50
2023-01-12T06:15:16.565Z,99160.28
2023-01-12T06:17:44.390Z,99153.53
2023-01-12T06:20:17.655Z,99151.06
2023-01-12T06:22:47.182Z,99151.06
2023-01-12T06:25:15.149Z,99144.59
2023-01-12T06:27:44.515Z,99142.38
2023-01-12T06:30:12.778Z,99138.59
2023-01-12T06:32:41.606Z,99136.47
2023-01-12T06:35:18.578Z,99141.91
2023-01-12T06:37:49.103Z,99142.34
2023-01-12T06:43:09.060Z,99145.09
2023-01-12T06:45:36.893Z,99149.03
2023-01-12T06:48:05.064Z,99147.16
2023-01-12T06:50:36.728Z,99151.22
2023-01-12T06:53:06.795Z,99155.47
2023-01-12T06:55:34.660Z,99151.75
2023-01-12T06:58:04.642Z,99167.00
2023-01-12T07:00:33.295Z,99159.38
2023-01-12T07:03:01.109Z,99168.03
2023-01-12T07:05:29.477Z,99162.63
2023-01-12T07:07:59.361Z,99162.09
2023-01-12T07:10:27.486Z,99173.72
2023-01-12T07:12:55.496Z,99156.94
2023-01-12T07:15:23.415Z,99151.22
2023-01-12T07:17:56.080Z,99162.81
2023-01-12T07:20:24.840Z,99161.53
2023-01-12T07:22:54.841Z,99171.50
2023-01-12T07:25:26.532Z,99165.69
2023-01-12T07:27:56.450Z,99166.50
2023-01-12T07:30:27.781Z,99166.00
2023-01-12T07:33:21.036Z,99152.13
2023-01-12T07:35:50.196Z,99149.97
2023-01-12T07:38:18.050Z,99167.00
2023-01-12T07:40:50.515Z,99169.16
2023-01-12T07:43:19.202Z,99158.88
2023-01-12T07:45:47.123Z,99157.69
2023-01-12T07:48:16.633Z,99164.72
2023-01-12T07:50:46.172Z,99158.97
2023-01-12T07:53:14.071Z,99151.66
2023-01-12T07:55:43.978Z,99149.13
2023-01-12T07:58:11.815Z,99148.47
2023-01-12T08:00:39.687Z,99143.84
2023-01-12T08:03:14.508Z,99146.97
2023-01-12T08:05:43.392Z,99141.66
2023-01-12T08:08:11.362Z,99138.25
2023-01-12T08:10:39.549Z,99144.06
2023-01-12T08:13:07.378Z,99138.03
2023-01-12T08:15:45.370Z,99143.63
2023-01-12T08:18:23.112Z,99141.25
2023-01-12T08:20:54.453Z,99135.69
2023-01-12T08:23:32.451Z,99142.81
2023-01-12T08:26:05.220Z,99159.25
2023-01-12T08:28:47.564Z,99154.31
2023-01-12T08:31:25.553Z,99141.66
2023-01-12T08:33:55.715Z,99148.97
2023-01-12T08:36:26.568Z,99148.09
2023-01-12T08:38:56.013Z,99129.84
2023-01-12T08:41:34.545Z,99139.81
2023-01-12T08:44:11.231Z,99138.84
2023-01-12T08:46:47.749Z,99141.03
2023-01-12T08:49:18.580Z,99139.38
2023-01-12T08:51:46.927Z,99141.50
2023-01-12T08:54:18.610Z,99139.66
2023-01-12T08:56:46.801Z,99142.88
2023-01-12T08:59:19.570Z,99142.22
2023-01-12T09:01:47.693Z,99141.16
2023-01-12T09:04:18.032Z,99153.91
2023-01-12T09:06:47.594Z,99152.75
2023-01-12T09:09:18.963Z,99152.00
2023-01-12T09:11:47.446Z,99153.19
2023-01-12T09:14:16.034Z,99145.53
2023-01-12T09:16:45.687Z,99159.75
2023-01-12T09:19:14.266Z,99148.63
2023-01-12T09:21:42.802Z,99152.44
2023-01-12T09:24:12.500Z,99154.50
2023-01-12T09:26:46.137Z,99150.88
2023-01-12T09:29:15.500Z,99149.03
2023-01-12T09:31:45.089Z,99134.31
2023-01-12T09:37:05.259Z,99143.31
2023-01-12T09:39:36.200Z,99145.22
2023-01-12T09:42:24.687Z,99149.09
2023-01-12T09:45:11.628Z,99143.50
2023-01-12T09:47:52.701Z,99136.78
2023-01-12T09:50:28.721Z,99129.00
2023-01-12T09:53:15.684Z,99118.81
2023-01-12T09:56:01.671Z,99125.13
2023-01-12T09:59:23.500Z,99109.34
2023-01-12T10:01:53.652Z,99112.50
2023-01-12T10:04:22.575Z,99113.09
2023-01-12T10:06:54.766Z,99115.63
2023-01-12T10:09:23.556Z,99107.94
2023-01-12T10:12:26.956Z,99115.72
2023-01-12T10:15:07.199Z,99110.59
2023-01-12T10:17:51.413Z,99105.94
2023-01-12T10:23:26.534Z,99093.38
2023-01-12T10:26:13.647Z,99091.97
2023-01-12T10:28:45.484Z,99077.31
2023-01-12T10:31:21.149Z,99080.13
2023-01-12T10:34:10.655Z,99078.91
2023-01-12T10:36:44.405Z,99076.69
2023-01-12T10:39:29.802Z,99066.38
2023-01-12T10:42:32.656Z,99059.69
2023-01-12T10:45:23.287Z,99053.06
2023-01-12T10:47:57.092Z,99047.25
2023-01-12T10:50:36.319Z,99048.16
2023-01-12T10:53:11.424Z,99048.25
2023-01-12T10:56:27.700Z,99047.00
2023-01-12T10:59:03.907Z,99035.19
2023-01-12T11:01:46.760Z,99037.56
2023-01-12T11:04:20.735Z,99031.09
2023-01-12T11:07:05.152Z,99029.06
2023-01-12T11:09:34.265Z,99026.88
2023-01-12T11:12:05.437Z,99022.63
2023-01-12T11:14:37.985Z,99020.94
2023-01-12T11:17:20.511Z,99004.25
2023-01-12T11:19:51.247Z,99009.47
2023-01-12T11:22:34.406Z,99009.16
2023-01-12T11:25:21.752Z,99001.44
2023-01-12T11:28:04.533Z,99000.06
2023-01-12T11:30:32.357Z,98997.06
2023-01-12T11:33:26.123Z,98977.41
2023-01-12T11:36:16.195Z,98973.84
2023-01-12T11:38:46.940Z,98964.00
2023-01-12T11:41:26.710Z,98952.44
2023-01-12T11:47:14.134Z,98946.03
2023-01-12T11:49:48.494Z,98939.88
2023-01-12T11:52:21.595Z,98944.03
2023-01-12T11:54:53.593Z,98924.59
2023-01-12T11:57:41.592Z,98937.47
2023-01-12T12:00:47.690Z,98926.69
2023-01-12T12:03:20.610Z,98930.03
2023-01-12T12:06:05.705Z,98929.09
2023-01-12T12:08:53.549Z,98926.34
2023-01-12T12:11:37.134Z,98909.78
2023-01-12T12:14:30.908Z,98915.41
2023-01-12T12:17:11.179Z,98907.81
2023-01-12T12:19:58.149Z,98911.41
2023-01-12T12:22:41.537Z,98913.31
2023-01-12T12:25:21.874Z,98922.72
2023-01-12T12:28:05.316Z,98913.44
2023-01-12T12:34:36.514Z,98899.44
2023-01-12T12:37:34.887Z,98903.91
2023-01-12T12:40:29.524Z,98896.47
2023-01-12T12:43:31.932Z,98893.84
2023-01-12T12:46:16.808Z,98900.59
2023-01-12T12:49:07.205Z,98862.13
2023-01-12T12:51:38.519Z,98867.28
2023-01-12T12:54:17.003Z,98863.91
2023-01-12T12:56:48.573Z,98901.63
2023-01-12T12:59:32.185Z,98884.16
2023-01-12T13:04:55.715Z,98868.66
2023-01-12T13:07:23.725Z,98870.28
2023-01-12T13:10:20.574Z,98868.03
2023-01-12T13:12:57.047Z,98853.22
2023-01-12T13:15:29.669Z,98872.69
2023-01-12T13:17:57.500Z,98871.72
2023-01-12T13:20:34.907Z,98880.06
2023-01-12T13:23:03.900Z,98864.81
2023-01-12T13:25:57.658Z,98878.50
2023-01-12T13:28:25.718Z,98869.47
2023-01-12T13:30:55.837Z,98873.66
2023-01-12T13:33:29.522Z,98861.41
2023-01-12T13:36:03.591Z,98861.28
2023-01-12T13:38:34.522Z,98855.59
2023-01-12T13:41:15.377Z,98866.13
2023-01-12T13:43:47.350Z,98853.03
2023-01-12T13:46:27.750Z,98839.97
2023-01-12T13:48:58.809Z,98843.69
2023-01-12T13:51:38.965Z,98835.84
2023-01-12T13:54:13.751Z,98839.50
2023-01-12T13:57:19.739Z,98825.34
2023-01-12T14:00:12.537Z,98837.97
2023-01-12T14:02:41.680Z,98864.28
2023-01-12T14:05:12.295Z,98858.31
2023-01-12T14:08:17.183Z,98854.56
2023-01-12T14:11:02.170Z,98851.78
2023-01-12T14:14:45.088Z,98855.47
2023-01-12T14:17:42.536Z,98848.56
2023-01-12T14:20:22.871Z,98846.94
2023-01-12T14:23:24.342Z,98844.50
2023-01-12T14:26:10.163Z,98843.56
2023-01-12T14:28:39.884Z,98845.00
2023-01-12T14:31:19.787Z,98834.41
2023-01-12T14:33:51.643Z,98828.56
2023-01-12T14:36:37.315Z,98817.31
2023-01-12T14:45:36.568Z,98813.16
2023-01-12T14:48:27.379Z,98814.78
2023-01-12T14:51:11.078Z,98810.72
2023-01-12T14:53:41.113Z,98818.63
2023-01-12T14:56:15.114Z,98820.38
2023-01-12T14:58:45.192Z,98814.88
2023-01-12T15:01:32.973Z,98810.66
2023-01-12T15:04:01.247Z,98801.28
2023-01-12T15:06:29.319Z,98803.81
2023-01-12T15:09:03.024Z,98803.03
2023-01-12T15:11:37.575Z,98804.81
2023-01-12T15:14:21.948Z,98801.72
2023-01-12T15:20:24.356Z,98800.44
2023-01-12T15:23:11.987Z,98795.09
2023-01-12T15:25:41.557Z,98794.44
2023-01-12T15:28:09.566Z,98798.59
2023-01-12T15:33:34.652Z,98799.88
2023-01-12T15:36:02.448Z,98791.94
2023-01-12T15:38:30.249Z,98792.56
2023-01-12T15:40:58.569Z,98794.28
2023-01-12T15:43:26.515Z,98801.28
2023-01-12T15:51:42.594Z,98787.03
2023-01-12T15:54:14.889Z,98801.03
2023-01-12T15:56:44.547Z,98799.91
2023-01-12T15:59:12.456Z,98797.28
2023-01-12T16:01:43.758Z,98810.16
2023-01-12T16:04:43.175Z,98800.63
2023-01-12T16:07:12.554Z,98788.56
2023-01-12T16:09:41.121Z,98794.75
2023-01-12T16:12:09.590Z,98795.88
2023-01-12T16:14:39.275Z,98792.81
2023-01-12T16:17:09.566Z,98805.16
2023-01-12T16:19:41.425Z,98811.75
2023-01-12T16:22:25.548Z,98809.94
2023-01-12T16:24:56.487Z,98808.16
2023-01-12T16:27:26.139Z,98805.66
2023-01-12T16:30:19.682Z,98808.44
2023-01-12T16:32:47.926Z,98801.69
2023-01-12T16:35:16.058Z,98804.91
2023-01-12T16:37:44.661Z,98806.97
2023-01-12T16:40:14.590Z,98805.66
2023-01-12T16:42:42.580Z,98806.75
2023-01-12T16:45:10.477Z,98810.94
2023-01-12T16:47:38.372Z,98813.94
2023-01-12T16:50:07.553Z,98813.28
2023-01-12T16:52:36.560Z,98815.09
2023-01-12T16:55:04.984Z,98815.94
2023-01-12T16:57:34.638Z,98816.94
2023-01-12T17:00:03.451Z,98821.28
2023-01-12T17:02:35.810Z,98825.84
2023-01-12T17:05:04.303Z,98820.09
2023-01-12T17:07:36.451Z,98812.09
2023-01-12T17:10:04.609Z,98810.78
2023-01-12T17:12:37.554Z,98804.91
2023-01-12T17:15:30.934Z,98798.84
2023-01-12T17:17:59.632Z,98780.06
2023-01-12T17:20:28.947Z,98805.94
2023-01-12T17:22:56.842Z,98803.28
2023-01-12T17:25:27.775Z,98804.22
2023-01-12T17:27:56.054Z,98806.22
2023-01-12T17:30:24.168Z,98797.44
2023-01-12T17:32:52.557Z,98798.34
2023-01-12T17:35:21.276Z,98798.56
2023-01-12T17:37:49.272Z,98799.09
2023-01-12T17:40:17.536Z,98793.91
2023-01-12T17:43:03.435Z,98794.84
2023-01-12T17:45:32.544Z,98796.66
2023-01-12T17:48:01.670Z,98794.25
2023-01-12T17:50:29.650Z,98789.28
2023-01-12T17:52:58.566Z,98800.09
2023-01-12T17:55:26.520Z,98800.59
2023-01-12T17:57:55.563Z,98804.34
2023-01-12T18:00:23.683Z,98797.47
2023-01-12T18:02:51.600Z,98804.44
2023-01-12T18:05:19.573Z,98809.59
2023-01-12T18:07:47.493Z,98804.34
2023-01-12T18:10:15.353Z,98803.03
2023-01-12T18:12:43.922Z,98808.78
2023-01-12T18:15:11.772Z,98788.97
2023-01-12T18:17:39.738Z,98795.66
2023-01-12T18:20:08.063Z,98796.25
2023-01-12T18:22:36.614Z,98791.09
2023-01-12T18:25:05.828Z,98790.78
2023-01-12T18:27:33.809Z,98790.91
2023-01-12T18:30:01.991Z,98786.16
2023-01-12T18:32:29.958Z,98781.13
2023-01-12T18:34:58.599Z,98779.19
2023-01-12T18:37:26.555Z,98770.94
2023-01-12T18:39:55.650Z,98770.16
2023-01-12T18:42:42.060Z,98759.38
2023-01-12T18:45:10.617Z,98758.47
2023-01-12T18:47:58.993Z,98762.50
2023-01-12T18:50:52.708Z,98758.25
2023-01-12T18:53:24.114Z,98764.13
2023-01-12T18:55:55.471Z,98750.69
2023-01-12T18:58:33.102Z,98749.69
2023-01-12T19:01:14.703Z,98750.69
2023-01-12T19:04:10.046Z,98754.13
2023-01-12T19:06:45.549Z,98746.66
2023-01-12T19:09:35.667Z,98737.59
2023-01-12T19:12:04.646Z,98747.78
2023-01-12T19:15:16.776Z,98745.94
2023-01-12T19:17:45.725Z,98742.09
2023-01-12T19:20:15.961Z,98745.75
2023-01-12T19:23:02.612Z,98749.41
2023-01-12T19:25:49.477Z,98741.91
2023-01-12T19:31:27.806Z,98734.31
2023-01-12T19:34:21.130Z,98735.88
2023-01-12T19:43:11.161Z,98739.69
2023-01-12T19:45:41.483Z,98737.28
2023-01-12T19:48:12.590Z,98740.50
2023-01-12T19:50:43.160Z,98733.22
2023-01-12T19:53:21.963Z,98725.56
2023-01-12T19:55:51.008Z,98723.75
2023-01-12T19:58:21.924Z,98732.22
2023-01-12T20:00:50.147Z,98725.38
2023-01-12T20:03:21.041Z,98720.69
2023-01-12T20:05:51.067Z,98723.25
2023-01-12T20:08:24.620Z,98709.72
2023-01-12T20:10:54.237Z,98714.66
2023-01-12T20:13:22.572Z,98712.66
2023-01-12T20:15:50.507Z,98714.06
2023-01-12T20:18:18.903Z,98709.28
2023-01-12T20:20:46.755Z,98728.06
2023-01-12T20:23:15.430Z,98716.94
2023-01-12T20:25:43.744Z,98704.25
2023-01-12T20:28:13.757Z,98704.38
2023-01-12T20:30:43.287Z,98708.59
2023-01-12T20:33:12.153Z,98711.81
2023-01-12T20:35:45.828Z,98708.66
2023-01-12T20:38:15.833Z,98714.75
2023-01-12T20:40:45.156Z,98703.88
2023-01-12T20:43:13.065Z,98708.81
2023-01-12T20:45:42.897Z,98697.94
2023-01-12T20:48:13.678Z,98697.41
2023-01-12T20:50:43.984Z,98681.88
2023-01-12T20:53:13.374Z,98686.94
2023-01-12T20:55:43.495Z,98687.59
2023-01-12T20:58:11.878Z,98690.22
2023-01-12T21:00:40.441Z,98688.94
2023-01-12T21:03:09.527Z,98683.03
2023-01-12T21:05:41.177Z,98699.88
2023-01-12T21:08:09.179Z,98697.38
2023-01-12T21:10:38.183Z,98695.69
2023-01-12T21:13:08.627Z,98701.91
2023-01-12T21:15:36.610Z,98700.41
2023-01-12T21:18:32.058Z,98690.34
2023-01-12T21:21:00.603Z,98692.66
2023-01-12T21:23:28.546Z,98697.28
2023-01-12T21:26:00.353Z,98698.63
2023-01-12T21:28:30.264Z,98696.31
2023-01-12T21:31:03.246Z,98692.94
2023-01-12T21:33:32.592Z,98689.03
2023-01-12T21:36:01.308Z,98696.47
2023-01-12T21:38:30.735Z,98689.31
2023-01-12T21:41:03.080Z,98683.88
2023-01-12T21:43:33.691Z,98685.69
2023-01-12T21:46:28.363Z,98691.63
2023-01-12T21:48:56.412Z,98695.28
2023-01-12T21:51:24.338Z,98698.13
2023-01-12T21:53:52.188Z,98697.78
2023-01-12T21:56:20.364Z,98688.63
2023-01-12T21:58:48.171Z,98694.75
2023-01-12T22:01:16.113Z,98695.25
2023-01-12T22:04:09.732Z,98691.75
2023-01-12T22:06:37.583Z,98698.00
2023-01-12T22:09:05.502Z,98695.28
2023-01-12T22:11:35.786Z,98696.06
2023-01-12T22:14:05.264Z,98690.03
2023-01-12T22:16:37.632Z,98687.50
2023-01-12T22:19:07.324Z,98683.25
2023-01-12T22:21:35.669Z,98682.03
2023-01-12T22:24:03.886Z,98676.59
2023-01-12T22:26:33.268Z,98678.81
2023-01-12T22:29:01.189Z,98675.41
2023-01-12T22:31:29.099Z,98675.69
2023-01-12T22:34:02.712Z,98671.97
2023-01-12T22:36:34.709Z,98674.50
2023-01-12T22:39:03.583Z,98670.06
2023-01-12T22:41:31.371Z,98672.47
2023-01-12T22:43:59.577Z,98672.06
2023-01-12T22:46:33.707Z,98652.38
2023-01-12T22:49:03.324Z,98665.72
2023-01-12T22:51:31.402Z,98665.16
2023-01-12T22:54:00.630Z,98669.72
2023-01-12T22:56:30.403Z,98670.22
2023-01-12T22:58:58.741Z,98664.16
2023-01-12T23:01:26.793Z,98665.16
2023-01-12T23:03:57.651Z,98675.16
2023-01-12T23:06:26.621Z,98685.34
2023-01-12T23:08:54.687Z,98671.66
2023-01-12T23:11:25.632Z,98680.41
2023-01-12T23:13:57.020Z,98673.75
2023-01-12T23:16:25.738Z,98670.25
2023-01-12T23:18:55.357Z,98665.41
2023-01-12T23:21:26.391Z,98664.19
2023-01-12T23:23:59.645Z,98656.94
2023-01-12T23:26:32.668Z,98654.28
2023-01-12T23:29:03.201Z,98650.88
2023-01-12T23:31:33.637Z,98650.66
2023-01-12T23:34:02.676Z,98646.63
2023-01-12T23:36:31.032Z,98642.63
2023-01-12T23:39:00.992Z,98645.34
2023-01-12T23:41:30.911Z,98652.88
2023-01-12T23:44:00.769Z,98632.41
2023-01-12T23:46:33.809Z,98633.69
2023-01-12T23:49:26.866Z,98630.69
2023-01-12T23:51:55.768Z,98647.03
2023-01-12T23:54:24.308Z,98644.81
2023-01-12T23:56:53.239Z,98638.75
